Latest Weather Observations for Tocal

IDN60801

Issued at 4:32 pm EST Thursday 24 August 2017 (issued every 30 minutes, with the page automatically refreshed every 10 minutes)

About weather observations | Map of weather stations | Latest weather observations for NSW | Other Formats
Station Details ID: 061250 Name: TOCAL AWS Lat: -32.63 Lon: 151.59 Height: 30.0 m
Data from the previous 72 hours. | See also: Recent months at Tocal
Date/Time
EST
Temp
°C
App
Temp
°C
Dew
Point
°C
Rel
Hum
%
Delta-T
°C
Wind Press
QNH
hPa
Press
MSL
hPa
Rain since
9am
mm
Dir  Spd
km/h
Gust
km/h
Spd
kts
Gust
kts
24/04:30pm 15.6 - 8.1 61 3.8 - - - - - - - 0.0
24/04:00pm 16.2 - 8.3 59 4.0 - - - - - - - 0.0
24/03:30pm 17.6 - 7.7 52 5.0 - - - - - - - 0.0
24/03:00pm 18.3 - 4.2 39 6.7 - - - - - - - 0.0
24/02:30pm 17.6 - 4.9 43 6.1 - - - - - - - 0.0
24/02:00pm 18.2 14.9 4.6 40 6.5 SSE 11 19 6 10 - - 0.0
24/01:30pm 20.7 16.3 2.5 30 8.5 SSW 15 22 8 12 - - 0.0
24/01:00pm 19.4 15.4 0.5 28 8.4 S 11 15 6 8 - - 0.0
24/12:30pm 19.7 15.5 1.4 29 8.3 WSW 13 17 7 9 - - 0.0
24/12:00pm 19.6 14.3 1.9 30 8.1 SSW 19 28 10 15 - - 0.0
24/11:30am 19.1 14.2 1.7 31 7.9 W 17 24 9 13 - - 0.0
24/11:00am 18.3 14.2 2.0 33 7.4 W 13 28 7 15 - - 0.0
24/10:30am 17.4 13.3 2.5 37 6.8 WSW 13 24 7 13 - - 0.0
24/10:00am 17.1 13.5 2.9 38 6.5 W 11 22 6 12 - - 0.0
24/09:30am 16.4 14.2 5.3 47 5.3 NNE 6 9 3 5 - - 0.0
24/09:00am 14.6 12.5 6.6 58 3.9 ENE 7 9 4 5 - - 0.0
24/08:30am 12.3 10.2 6.6 68 2.7 ENE 7 9 4 5 - - 0.0
24/08:00am 9.2 8.5 7.1 87 1.0 CALM 0 0 0 0 - - 0.0
24/07:30am 7.8 6.6 6.3 90 0.7 W 2 6 1 3 - - 0.0
24/07:00am 6.5 5.1 5.6 94 0.4 NW 2 7 1 4 - - 0.0
24/06:30am 7.2 6.3 6.1 93 0.5 CALM 0 0 0 0 - - 0.0
24/06:00am 6.7 5.7 5.8 94 0.4 CALM 0 6 0 3 - - 0.0
24/05:30am 7.8 7.0 6.7 93 0.5 CALM 0 0 0 0 - - 0.0
24/05:00am 7.8 7.0 6.5 91 0.6 CALM 0 0 0 0 - - 0.0
24/04:30am 8.0 7.3 6.9 93 0.5 CALM 0 0 0 0 - - 0.0
24/04:00am 7.0 6.2 6.3 95 0.3 CALM 0 0 0 0 - - 0.0
24/03:30am 7.3 5.4 6.9 97 0.2 WSW 6 7 3 4 - - 0.0
24/03:00am 7.9 6.9 7.5 97 0.2 WNW 2 6 1 3 - - 0.0
24/02:30am 8.0 7.1 7.6 97 0.2 NNW 2 7 1 4 - - 0.0
24/02:00am 9.3 8.6 8.5 95 0.4 WNW 2 9 1 5 - - 0.0
24/01:30am 9.1 8.3 8.3 95 0.4 W 2 7 1 4 - - 0.0
24/01:00am 9.4 9.0 8.2 92 0.6 CALM 0 4 0 2 - - 0.0
24/12:30am 8.8 7.2 8.0 95 0.4 NNW 6 9 3 5 - - 0.0
24/12:00am 10.0 8.4 8.8 92 0.6 WSW 7 7 4 4 - - 0.0
 
Date/Time
EST
Temp
°C
App
Temp
°C
Dew
Point
°C
Rel
Hum
%
Delta-T
°C
Wind Press
QNH
hPa
Press
MSL
hPa
Rain since
9am
mm
Dir  Spd
km/h
Gust
km/h
Spd
kts
Gust
kts
23/11:30pm 12.1 11.8 8.7 80 1.7 CALM 0 0 0 0 - - 0.0
23/11:00pm 11.4 11.2 9.0 85 1.2 CALM 0 0 0 0 - - 0.0
23/10:30pm 12.9 12.8 9.6 80 1.7 CALM 0 0 0 0 - - 0.0
23/10:00pm 13.4 13.0 9.9 79 1.8 W 2 9 1 5 - - 0.0
23/09:30pm 14.0 12.2 9.5 74 2.3 NE 9 19 5 10 - - 0.0
23/09:00pm 15.7 15.0 10.2 70 2.9 N 4 7 2 4 - - 0.0
23/08:30pm 17.2 17.1 10.9 66 3.4 W 2 7 1 4 - - 0.0
23/08:00pm 18.2 18.3 11.4 64 3.7 N 2 11 1 6 - - 0.0
23/07:30pm 18.1 17.3 11.1 63 3.8 NE 6 9 3 5 - - 0.0
23/07:00pm 17.3 15.6 9.7 61 4.0 N 9 11 5 6 - - 0.0
23/06:30pm 15.3 14.1 9.7 69 2.9 WNW 6 9 3 5 - - 0.0
23/06:00pm 17.1 16.0 9.9 62 3.8 WNW 6 7 3 4 - - 0.0
23/05:30pm 19.0 19.1 10.2 56 4.7 CALM 0 0 0 0 - - 0.0
23/05:00pm 20.8 19.2 8.9 46 6.3 E 7 9 4 5 - - 0.0
23/04:30pm 21.4 19.8 8.7 44 6.7 E 7 9 4 5 - - 0.0
23/04:00pm 21.7 19.6 8.4 42 7.0 ENE 9 13 5 7 - - 0.0
23/03:30pm 21.9 19.7 7.9 40 7.3 SE 9 15 5 8 - - 0.0
23/03:00pm 22.1 19.9 8.0 40 7.4 SE 9 13 5 7 - - 0.0
23/02:30pm 21.9 20.2 8.2 41 7.2 S 7 13 4 7 - - 0.0
23/02:00pm 21.6 19.8 8.0 41 7.1 ENE 7 11 4 6 - - 0.0
23/01:30pm 21.2 19.2 8.7 44 6.6 E 9 13 5 7 - - 0.0
23/01:00pm 20.8 18.8 8.6 45 6.4 NNE 9 13 5 7 - - 0.0
23/12:30pm 19.9 18.3 8.6 48 5.9 ESE 7 11 4 6 - - 0.0
23/12:00pm 19.2 17.8 9.4 53 5.2 ESE 7 13 4 7 - - 0.0
23/11:30am 18.7 17.3 9.6 55 4.8 NNE 7 11 4 6 - - 0.0
23/11:00am 17.4 16.1 9.1 58 4.3 N 6 9 3 5 - - 0.0
23/10:30am 16.4 15.1 9.3 63 3.7 N 6 9 3 5 - - 0.0
23/10:00am 15.0 13.7 9.1 68 3.0 NNE 6 9 3 5 - - 0.0
23/09:30am 13.1 11.4 8.5 73 2.3 NE 7 11 4 6 - - 0.0
23/09:00am 11.5 9.9 8.0 79 1.7 NE 6 7 3 4 - - 0.0
23/08:30am 9.7 7.1 7.8 88 0.9 NE 11 13 6 7 - - 0.0
23/08:00am 7.1 6.4 6.9 99 0.1 CALM 0 0 0 0 - - 0.0
23/07:30am 5.4 3.9 5.2 99 0.1 NW 2 6 1 3 - - 0.0
23/07:00am 4.4 1.8 4.4 100 0.0 WSW 7 9 4 5 - - 0.0
23/06:30am 4.0 2.7 4.0 100 0.0 CALM 0 7 0 4 - - 0.0
23/06:00am 4.1 2.8 4.1 100 0.0 CALM 0 0 0 0 - - 0.0
23/05:30am 5.1 4.0 5.1 100 0.0 CALM 0 0 0 0 - - 0.0
23/05:00am 4.4 3.2 4.4 100 0.0 CALM 0 4 0 2 - - 0.0
23/04:30am 4.7 3.5 4.7 100 0.0 CALM 0 0 0 0 - - 0.0
23/04:00am 5.0 3.9 5.0 100 0.0 CALM 0 0 0 0 - - 0.0
23/03:30am 4.5 3.3 4.5 100 0.0 CALM 0 0 0 0 - - 0.0
23/03:00am 5.0 3.9 5.0 100 0.0 CALM 0 0 0 0 - - 0.0
23/02:30am 5.6 4.6 5.6 100 0.0 CALM 0 0 0 0 - - 0.0
23/02:00am 5.6 4.6 5.6 100 0.0 CALM 0 0 0 0 - - 0.0
23/01:30am 5.7 4.3 5.5 99 0.1 WNW 2 7 1 4 - - 0.0
23/01:00am 6.1 4.0 5.9 99 0.1 W 6 9 3 5 - - 0.0
23/12:30am 6.1 5.2 5.9 99 0.1 CALM 0 0 0 0 - - 0.0
23/12:00am 6.4 4.4 6.2 99 0.1 NW 6 7 3 4 - - 0.0
 
Date/Time
EST
Temp
°C
App
Temp
°C
Dew
Point
°C
Rel
Hum
%
Delta-T
°C
Wind Press
QNH
hPa
Press
MSL
hPa
Rain since
9am
mm
Dir  Spd
km/h
Gust
km/h
Spd
kts
Gust
kts
22/11:30pm 7.9 7.3 7.3 96 0.3 CALM 0 0 0 0 - - 0.0
22/11:00pm 7.2 5.1 6.8 97 0.2 WNW 7 7 4 4 - - 0.0
22/10:30pm 8.2 7.6 7.3 94 0.4 CALM 0 0 0 0 - - 0.0
22/10:00pm 8.4 7.8 7.3 93 0.5 CALM 0 0 0 0 - - 0.0
22/09:30pm 9.3 8.7 7.6 89 0.8 CALM 0 0 0 0 - - 0.0
22/09:00pm 11.1 10.7 8.2 82 1.4 CALM 0 0 0 0 - - 0.0
22/08:30pm 11.6 9.9 8.4 81 1.6 WSW 7 9 4 5 - - 0.0
22/08:00pm 10.9 10.6 8.5 85 1.2 CALM 0 2 0 1 - - 0.0
22/07:30pm 11.8 10.4 8.8 82 1.5 W 6 7 3 4 - - 0.0
22/07:00pm 13.9 13.6 8.5 70 2.7 CALM 0 0 0 0 - - 0.0
22/06:30pm 13.7 13.5 9.0 73 2.4 CALM 0 0 0 0 - - 0.0
22/06:00pm 14.6 14.0 9.1 69 2.8 SE 2 9 1 5 - - 0.0
22/05:30pm 15.5 14.0 9.1 65 3.3 SSE 7 11 4 6 - - 0.0
22/05:00pm 16.4 14.1 9.0 61 3.8 SE 11 17 6 9 - - 0.0
22/04:30pm 17.1 14.4 9.0 59 4.2 SE 13 22 7 12 - - 0.0
22/04:00pm 18.0 14.6 7.5 50 5.3 SE 15 22 8 12 - - 0.0
22/03:30pm 18.7 15.1 8.5 51 5.3 SE 17 24 9 13 - - 0.0
22/03:00pm 19.5 16.2 8.1 47 5.9 SSE 15 24 8 13 - - 0.0
22/02:30pm 20.1 17.3 6.9 42 6.7 SSE 11 20 6 11 - - 0.0
22/02:00pm 20.2 17.2 3.9 34 7.8 SE 9 22 5 12 - - 0.0
22/01:30pm 20.0 17.0 3.9 34 7.7 SE 9 13 5 7 - - 0.0
22/01:00pm 19.9 16.9 4.3 35 7.5 SSE 9 13 5 7 - - 0.0
22/12:30pm 19.7 16.5 5.2 38 7.1 ESE 11 15 6 8 - - 0.0
22/12:00pm 19.0 16.3 5.5 41 6.6 S 9 17 5 9 - - 0.0
22/11:30am 18.6 16.0 6.0 43 6.2 SSE 9 15 5 8 - - 0.0
22/11:00am 17.6 15.2 5.4 44 5.9 S 7 11 4 6 - - 0.0
22/10:30am 17.0 14.5 4.5 43 5.9 E 7 11 4 6 - - 0.0
22/10:00am 15.6 12.7 4.8 48 5.1 SSE 9 15 5 8 - - 0.0
22/09:30am 14.9 13.5 5.7 54 4.4 SSE 2 7 1 4 - - 0.0
22/09:00am 12.5 9.9 4.4 58 3.7 N 7 9 4 5 - - 0.0
22/08:30am 11.2 9.0 6.3 72 2.3 NNE 7 9 4 5 - - 0.0
22/08:00am 9.1 7.8 6.1 81 1.4 W 2 7 1 4 - - 0.0
22/07:30am 8.5 6.4 5.6 82 1.3 WSW 6 7 3 4 - - 0.0
22/07:00am 6.6 4.3 5.0 89 0.7 W 6 7 3 4 - - 0.0
22/06:30am 6.6 5.5 5.0 89 0.7 CALM 0 0 0 0 - - 0.0
22/06:00am 7.5 5.2 4.8 83 1.2 W 6 7 3 4 - - 0.0
22/05:30am 6.8 4.6 5.4 91 0.6 SW 6 7 3 4 - - 0.0
22/05:00am 6.5 3.8 5.4 93 0.5 N 9 9 5 5 - - 0.0
22/04:30am 7.4 5.0 5.1 85 1.0 WSW 7 11 4 6 - - 0.0
22/04:00am 7.5 6.0 5.0 84 1.1 W 2 9 1 5 - - 0.0
22/03:30am 7.7 6.6 5.0 83 1.2 CALM 0 0 0 0 - - 0.0
22/03:00am 7.1 6.1 5.5 89 0.7 CALM 0 0 0 0 - - 0.0
22/02:30am 7.4 5.3 5.6 88 0.8 NNW 6 7 3 4 - - 0.0
22/02:00am 8.1 5.4 5.7 85 1.1 NE 9 11 5 6 - - 0.0
22/01:30am 7.7 5.6 5.9 88 0.8 NE 6 11 3 6 - - 0.0
22/01:00am 8.1 7.1 5.4 83 1.2 CALM 0 0 0 0 - - 0.0
22/12:30am 7.8 6.8 5.6 86 1.0 CALM 0 0 0 0 - - 0.0
22/12:00am 8.0 7.0 5.6 85 1.1 CALM 0 4 0 2 - - 0.0
 
Date/Time
EST
Temp
°C
App
Temp
°C
Dew
Point
°C
Rel
Hum
%
Delta-T
°C
Wind Press
QNH
hPa
Press
MSL
hPa
Rain since
9am
mm
Dir  Spd
km/h
Gust
km/h
Spd
kts
Gust
kts
21/11:30pm 8.7 7.9 6.5 86 1.0 CALM 0 0 0 0 - - 0.0
21/11:00pm 8.9 8.1 6.5 85 1.1 CALM 0 6 0 3 - - 0.0
21/10:30pm 8.5 7.5 5.4 81 1.4 CALM 0 6 0 3 - - 0.0
21/10:00pm 7.8 6.8 5.8 87 0.9 CALM 0 0 0 0 - - 0.0
21/09:30pm 8.4 6.4 6.2 86 1.0 WSW 6 7 3 4 - - 0.0
21/09:00pm 8.5 7.6 5.9 84 1.2 CALM 0 0 0 0 - - 0.0
21/08:30pm 9.1 8.4 7.0 87 1.0 CALM 0 0 0 0 - - 0.0
21/08:00pm 8.7 6.7 7.2 90 0.7 NNW 7 7 4 4 - - 0.0
21/07:30pm 9.8 8.6 7.9 88 0.9 W 4 7 2 4 - - 0.0
21/07:00pm 10.6 10.2 8.1 84 1.2 CALM 0 0 0 0 - - 0.0
21/06:30pm 11.5 11.0 8.0 79 1.7 CALM 0 4 0 2 - - 0.0
21/06:00pm 12.3 11.6 7.1 70 2.5 CALM 0 0 0 0 - - 0.0
21/05:30pm 13.0 11.0 7.2 68 2.8 NNE 7 11 4 6 - - 0.0
21/05:00pm 13.6 11.4 7.9 68 2.8 ENE 9 13 5 7 - - 0.0

Other Formats:

Comma delimited format used in spreadsheet applications
http://www.bom.gov.au/fwo/IDN60801/IDN60801.94775.axf

JavaScript Object Notation format (JSON) in row-major order
http://www.bom.gov.au/fwo/IDN60801/IDN60801.94775.json